Time;durP1;ratioP1;P1;durP2;ratioP2;P2;SDS_P1;SDS_P2;PMS_P1;PMS_P2;Temp;Humidity;BMP_temperature;BMP_pressure;BME280_temperature;BME280_humidity;BME280_pressure;Samples;Min_cycle;Max_cycle;Signal;HPM_P1;HPM_P2
2022/03/28 00:02:23;;;;;;;;;;;;;;;10.55;42.26;101051.19;4442103;32;19985;-77
2022/03/28 00:04:50;;;;;;;;;;;;;;;10.64;42.11;101043.75;4455711;32;19988;-80
2022/03/28 00:07:17;;;;;;;;;;;;;;;10.25;43.11;101041.47;4459748;32;20031;-77
2022/03/28 00:09:44;;;;;;;;;;;;;;;10.41;42.68;101042.06;4425288;32;19968;-75
2022/03/28 00:12:11;;;;;;;;;;;;;;;10.32;42.81;101041.72;4460133;32;19970;-75
2022/03/28 00:14:38;;;;;;;;;;;;;;;10.49;42.00;101043.19;4449525;32;19992;-79
2022/03/28 00:17:05;;;;;;;;;;;;;;;10.40;42.47;101040.28;4444393;32;20035;-78
2022/03/28 00:19:32;;;;;;;;;;;;;;;10.40;42.23;101041.19;4442897;32;19978;-79
2022/03/28 00:22:00;;;;;;;;;;;;;;;10.26;42.85;101042.38;4444152;32;20353;-76
2022/03/28 00:24:27;;;;;;;;;;;;;;;10.18;42.94;101039.50;4443315;32;20003;-78
2022/03/28 00:26:55;;;;;;;;;;;;;;;9.98;43.25;101045.59;4443172;32;20022;-81
2022/03/28 00:29:22;;;;;;;;;;;;;;;10.15;42.74;101033.31;4443536;32;19977;-81
2022/03/28 00:31:48;;;;;;;;;;;;;;;10.23;42.79;101030.16;4443608;32;20323;-78
2022/03/28 00:34:21;;;;;;;;;;;;;;;10.27;42.48;101023.44;4428524;32;20016;-77
2022/03/28 00:36:50;;;;;;;;;;;;;;;10.30;42.06;101014.91;4444578;32;20030;-75
2022/03/28 00:39:19;;;;;;;;;;;;;;;9.94;42.95;101020.47;4429721;32;19989;-81
2022/03/28 00:41:47;;;;;;;;;;;;;;;10.04;42.98;101013.91;4417043;32;19986;-77
2022/03/28 00:44:13;;;;;;;;;;;;;;;10.14;42.85;101011.72;4442779;32;20032;-79
2022/03/28 00:46:41;;;;;;;;;;;;;;;10.03;42.62;101010.47;4444311;32;20349;-77
2022/03/28 00:49:08;;;;;;;;;;;;;;;9.74;43.55;101010.25;4443568;32;20036;-77
2022/03/28 00:51:35;;;;;;;;;;;;;;;9.90;42.98;101003.06;4430292;32;20031;-77
2022/03/28 00:54:02;;;;;;;;;;;;;;;9.95;42.93;101004.97;4398204;32;19978;-77
2022/03/28 00:56:30;;;;;;;;;;;;;;;10.08;42.25;100998.56;4398496;32;20028;-78
2022/03/28 00:58:58;;;;;;;;;;;;;;;10.04;42.56;100996.69;4398526;32;20005;-81
2022/03/28 01:01:27;;;;;;;;;;;;;;;9.90;42.63;101000.47;4408562;32;20004;-80
2022/03/28 01:03:54;;;;;;;;;;;;;;;9.65;43.36;100994.38;4399778;32;20330;-79
2022/03/28 01:06:22;;;;;;;;;;;;;;;9.66;43.17;100998.72;4413927;32;20383;-80
2022/03/28 01:08:49;;;;;;;;;;;;;;;9.89;42.79;100993.53;4399149;32;20088;-78
2022/03/28 01:11:17;;;;;;;;;;;;;;;9.86;42.97;100988.25;4398695;32;19986;-77
2022/03/28 01:13:44;;;;;;;;;;;;;;;9.81;42.69;100989.78;4413617;32;20028;-77
2022/03/28 01:16:11;;;;;;;;;;;;;;;9.96;42.13;100983.47;4421712;32;19980;-77
2022/03/28 01:18:38;;;;;;;;;;;;;;;9.89;42.48;100978.00;4444747;32;20037;-80
2022/03/28 01:21:05;;;;;;;;;;;;;;;9.76;42.64;100977.59;4429122;32;19993;-78
2022/03/28 01:23:32;;;;;;;;;;;;;;;9.75;42.71;100986.13;4442608;32;20116;-79
2022/03/28 01:25:59;;;;;;;;;;;;;;;9.49;43.30;100976.53;4430113;32;19977;-77
2022/03/28 01:28:27;;;;;;;;;;;;;;;9.69;42.79;100978.16;4443378;32;19997;-78
2022/03/28 01:30:54;;;;;;;;;;;;;;;9.64;43.03;100974.53;4424359;32;19985;-77
2022/03/28 01:33:22;;;;;;;;;;;;;;;9.70;42.67;100971.25;4458455;32;20029;-79
2022/03/28 01:35:49;;;;;;;;;;;;;;;9.68;42.64;100970.34;4459065;32;20032;-80
2022/03/28 01:38:17;;;;;;;;;;;;;;;9.61;42.72;100966.66;4445839;32;20057;-79
2022/03/28 01:40:45;;;;;;;;;;;;;;;9.53;43.07;100965.47;4459683;32;19973;-81
2022/03/28 01:43:12;;;;;;;;;;;;;;;9.49;42.95;100966.19;4449695;32;20011;-80
2022/03/28 01:45:39;;;;;;;;;;;;;;;9.52;42.77;100966.28;4430023;32;20056;-77
2022/03/28 01:48:06;;;;;;;;;;;;;;;9.14;43.84;100962.22;4444164;32;19985;-77
2022/03/28 01:50:33;;;;;;;;;;;;;;;9.30;43.42;100962.87;4443228;32;20003;-78
2022/03/28 01:53:02;;;;;;;;;;;;;;;9.52;42.83;100955.97;4428928;32;20405;-80
2022/03/28 01:55:28;;;;;;;;;;;;;;;9.28;43.47;100961.94;4428630;32;19993;-76
2022/03/28 01:57:55;;;;;;;;;;;;;;;9.36;43.13;100953.62;4414111;32;19991;-78
2022/03/28 02:00:24;;;;;;;;;;;;;;;9.11;43.81;100952.63;4414438;32;20304;-78
2022/03/28 02:02:51;;;;;;;;;;;;;;;9.13;43.83;100950.13;4414406;32;20026;-76
2022/03/28 02:05:18;;;;;;;;;;;;;;;9.31;43.13;100956.88;4439083;32;19993;-76
2022/03/28 02:07:47;;;;;;;;;;;;;;;9.13;43.77;100951.00;4443678;32;19965;-79
2022/03/28 02:10:15;;;;;;;;;;;;;;;9.02;43.83;100952.28;4429788;32;19989;-79
2022/03/28 02:12:43;;;;;;;;;;;;;;;9.20;43.09;100947.84;4429705;32;20008;-77
2022/03/28 02:15:10;;;;;;;;;;;;;;;9.40;42.66;100950.31;4443668;32;19976;-78
2022/03/28 02:17:37;;;;;;;;;;;;;;;9.45;42.40;100944.50;4452220;32;20032;-77
2022/03/28 02:20:08;;;;;;;;;;;;;;;9.24;43.18;100952.28;4457920;32;19985;-80
2022/03/28 02:22:35;;;;;;;;;;;;;;;9.04;43.55;100945.47;4459991;32;20002;-76
2022/03/28 02:25:03;;;;;;;;;;;;;;;9.19;43.08;100942.59;4443972;32;20091;-78
2022/03/28 02:27:30;;;;;;;;;;;;;;;9.19;42.80;100940.91;4454397;32;20251;-77
2022/03/28 02:29:56;;;;;;;;;;;;;;;9.10;43.12;100945.72;4457171;32;20097;-80
2022/03/28 02:32:23;;;;;;;;;;;;;;;9.13;42.96;100943.25;4461291;32;20543;-77
2022/03/28 02:34:50;;;;;;;;;;;;;;;8.81;43.55;100942.84;4460978;32;20451;-76
2022/03/28 02:37:17;;;;;;;;;;;;;;;8.89;43.50;100942.28;4459530;32;20026;-76
2022/03/28 02:39:44;;;;;;;;;;;;;;;8.94;43.44;100949.37;4459189;32;19981;-80
2022/03/28 02:42:11;;;;;;;;;;;;;;;8.76;43.77;100944.34;4460125;32;19984;-80
2022/03/28 02:44:38;;;;;;;;;;;;;;;8.81;43.51;100948.00;4459391;32;20150;-78
2022/03/28 02:47:05;;;;;;;;;;;;;;;8.65;43.91;100948.19;4461330;32;19972;-79
2022/03/28 02:49:32;;;;;;;;;;;;;;;8.81;43.60;100942.84;4458444;32;19992;-80
2022/03/28 02:51:59;;;;;;;;;;;;;;;9.07;42.74;100946.47;4446576;32;20008;-78
2022/03/28 02:54:26;;;;;;;;;;;;;;;8.89;43.02;100939.69;4452823;32;19984;-79
2022/03/28 02:56:53;;;;;;;;;;;;;;;8.48;43.90;100939.72;4459208;32;19982;-77
2022/03/28 02:59:20;;;;;;;;;;;;;;;8.48;43.97;100942.31;4460361;32;20040;-79
2022/03/28 03:01:48;;;;;;;;;;;;;;;8.57;43.66;100934.97;4460574;32;20015;-78
2022/03/28 03:04:15;;;;;;;;;;;;;;;8.69;43.19;100937.19;4153253;32;10001009;-76
2022/03/28 03:06:42;;;;;;;;;;;;;;;8.54;44.08;100944.28;4461017;32;19997;-81
2022/03/28 03:09:09;;;;;;;;;;;;;;;8.61;43.37;100938.53;4461198;32;19983;-77
2022/03/28 03:11:37;;;;;;;;;;;;;;;8.52;43.75;100938.16;4460895;32;19973;-79
2022/03/28 03:14:05;;;;;;;;;;;;;;;8.78;42.83;100941.84;4460300;32;20097;-80
2022/03/28 03:16:33;;;;;;;;;;;;;;;8.75;43.28;100937.44;4449200;32;20779;-81
2022/03/28 03:19:00;;;;;;;;;;;;;;;8.80;42.65;100942.75;4449313;32;19976;-81
2022/03/28 03:21:28;;;;;;;;;;;;;;;8.72;43.14;100942.47;4433147;32;19985;-78
2022/03/28 03:23:55;;;;;;;;;;;;;;;8.53;43.58;100939.94;4444665;32;19980;-77
2022/03/28 03:26:22;;;;;;;;;;;;;;;8.35;44.05;100940.88;4461037;32;20034;-80
2022/03/28 03:28:49;;;;;;;;;;;;;;;8.68;43.16;100940.59;4460028;32;19988;-77
2022/03/28 03:31:16;;;;;;;;;;;;;;;8.56;43.55;100929.75;4459356;32;19996;-77
2022/03/28 03:33:45;;;;;;;;;;;;;;;8.56;43.35;100930.62;4443211;32;20000;-80
2022/03/28 03:36:12;;;;;;;;;;;;;;;8.57;43.24;100926.34;4445174;32;19977;-76
2022/03/28 03:38:38;;;;;;;;;;;;;;;8.36;44.11;100927.19;4444563;32;20303;-75
2022/03/28 03:41:07;;;;;;;;;;;;;;;8.64;43.12;100928.34;4445141;32;20354;-80
2022/03/28 03:43:34;;;;;;;;;;;;;;;8.59;43.58;100924.72;4443257;32;19985;-77
2022/03/28 03:46:00;;;;;;;;;;;;;;;8.71;43.00;100925.22;4441635;32;20029;-81
2022/03/28 03:48:29;;;;;;;;;;;;;;;8.68;42.78;100930.25;4444351;32;19991;-82
2022/03/28 03:50:56;;;;;;;;;;;;;;;8.55;43.42;100927.97;4436791;32;20026;-80
2022/03/28 03:53:23;;;;;;;;;;;;;;;8.41;43.52;100926.53;4426008;32;20411;-76
2022/03/28 03:55:50;;;;;;;;;;;;;;;8.42;43.44;100925.69;4429145;32;19989;-77
2022/03/28 03:58:17;;;;;;;;;;;;;;;8.18;44.33;100921.22;4429686;32;20037;-76
2022/03/28 04:00:43;;;;;;;;;;;;;;;8.20;44.08;100918.69;4429117;32;20693;-79
2022/03/28 04:03:11;;;;;;;;;;;;;;;8.57;42.86;100921.19;4429255;32;20001;-79
2022/03/28 04:05:38;;;;;;;;;;;;;;;8.29;43.56;100919.97;4428966;32;20816;-79
2022/03/28 04:08:05;;;;;;;;;;;;;;;8.26;43.57;100925.00;4429246;32;20023;-80
2022/03/28 04:10:34;;;;;;;;;;;;;;;8.30;43.73;100921.75;4429639;32;19978;-78
2022/03/28 04:13:02;;;;;;;;;;;;;;;8.33;43.42;100921.87;4429896;32;19994;-76
2022/03/28 04:15:28;;;;;;;;;;;;;;;8.22;43.84;100917.97;4426804;32;19992;-77
2022/03/28 04:17:57;;;;;;;;;;;;;;;8.38;43.13;100925.56;4407806;32;19981;-76
2022/03/28 04:20:25;;;;;;;;;;;;;;;8.20;43.58;100919.63;4420505;32;20046;-77
2022/03/28 04:22:52;;;;;;;;;;;;;;;7.93;44.77;100925.31;4423839;32;19989;-76
2022/03/28 04:25:19;;;;;;;;;;;;;;;8.21;43.79;100916.22;4427114;32;19993;-76
2022/03/28 04:27:46;;;;;;;;;;;;;;;8.37;43.09;100918.63;4425105;32;19991;-75
2022/03/28 04:30:13;;;;;;;;;;;;;;;8.31;43.43;100908.03;4392749;32;20052;-79
2022/03/28 04:32:40;;;;;;;;;;;;;;;8.29;43.20;100914.81;4420948;32;20362;-84
2022/03/28 04:35:08;;;;;;;;;;;;;;;8.12;43.81;100906.38;4427592;32;20024;-80
2022/03/28 04:37:35;;;;;;;;;;;;;;;8.45;42.90;100910.34;4426720;32;19981;-80
2022/03/28 04:40:03;;;;;;;;;;;;;;;8.55;42.97;100905.66;4428003;32;20331;-77
2022/03/28 04:42:30;;;;;;;;;;;;;;;8.47;42.86;100908.72;4428714;32;19999;-75
2022/03/28 04:44:56;;;;;;;;;;;;;;;8.45;42.76;100905.19;4427554;32;19981;-69
2022/03/28 04:47:23;;;;;;;;;;;;;;;8.28;43.65;100907.91;4438962;32;20733;-74
2022/03/28 04:49:50;;;;;;;;;;;;;;;8.31;43.65;100913.19;4426566;32;20039;-73
2022/03/28 04:52:17;;;;;;;;;;;;;;;8.34;43.66;100913.31;4420912;32;19985;-78
2022/03/28 04:54:44;;;;;;;;;;;;;;;8.40;43.00;100906.72;4409205;32;20026;-77
2022/03/28 04:57:11;;;;;;;;;;;;;;;8.38;43.19;100915.25;4429657;32;19981;-80
2022/03/28 04:59:37;;;;;;;;;;;;;;;8.12;44.68;100915.81;4422053;32;19985;-75
2022/03/28 05:02:06;;;;;;;;;;;;;;;8.27;44.02;100915.59;4427396;32;19990;-75
2022/03/28 05:04:33;;;;;;;;;;;;;;;8.20;44.18;100914.44;4428157;32;19985;-71
2022/03/28 05:07:00;;;;;;;;;;;;;;;8.49;43.41;100913.12;4413730;32;20020;-74
2022/03/28 05:09:27;;;;;;;;;;;;;;;8.67;43.18;100918.16;4428369;32;20484;-76
2022/03/28 05:11:53;;;;;;;;;;;;;;;8.72;43.20;100919.22;4427251;32;20386;-79
2022/03/28 05:14:22;;;;;;;;;;;;;;;8.66;43.84;100921.56;4428747;32;20036;-78
2022/03/28 05:16:49;;;;;;;;;;;;;;;8.74;44.04;100915.03;4427440;32;20274;-77
2022/03/28 05:19:16;;;;;;;;;;;;;;;8.57;44.21;100918.59;4427936;32;20012;-79
2022/03/28 05:21:43;;;;;;;;;;;;;;;8.49;45.29;100920.00;4412485;32;20020;-79
2022/03/28 05:24:10;;;;;;;;;;;;;;;8.76;44.44;100905.63;4425702;32;20932;-79
2022/03/28 05:26:37;;;;;;;;;;;;;;;8.72;45.16;100908.91;4427167;32;20023;-78
2022/03/28 05:29:03;;;;;;;;;;;;;;;8.71;45.68;100909.75;4426183;32;21538;-75
2022/03/28 05:31:30;;;;;;;;;;;;;;;8.82;44.57;100912.75;4425361;32;19985;-78
2022/03/28 05:33:57;;;;;;;;;;;;;;;8.92;44.13;100914.00;4441199;32;19981;-73
2022/03/28 05:36:25;;;;;;;;;;;;;;;8.96;45.07;100910.69;4444281;32;20038;-83
2022/03/28 05:38:52;;;;;;;;;;;;;;;9.13;44.64;100909.69;4427332;32;20476;-75
2022/03/28 05:41:18;;;;;;;;;;;;;;;9.30;41.96;100908.63;4422350;32;20334;-81
2022/03/28 05:43:45;;;;;;;;;;;;;;;9.48;42.06;100907.56;4428518;32;20334;-79
2022/03/28 05:46:12;;;;;;;;;;;;;;;9.49;42.34;100904.16;4429977;32;20251;-80
2022/03/28 05:48:39;;;;;;;;;;;;;;;9.60;40.89;100900.25;4413911;32;20039;-78
2022/03/28 05:51:06;;;;;;;;;;;;;;;9.70;40.91;100904.03;4420460;32;19989;-80
2022/03/28 05:53:33;;;;;;;;;;;;;;;9.99;40.10;100907.72;4429042;32;19982;-77
2022/03/28 05:56:03;;;;;;;;;;;;;;;10.19;39.27;100906.69;4427391;32;19985;-79
2022/03/28 05:58:32;;;;;;;;;;;;;;;10.34;39.03;100910.66;4436847;32;20008;-74
2022/03/28 06:01:00;;;;;;;;;;;;;;;10.59;38.59;100905.50;4433189;32;20035;-72
2022/03/28 06:03:27;;;;;;;;;;;;;;;10.70;38.40;100896.34;4441220;32;20004;-77
2022/03/28 06:06:08;;;;;;;;;;;;;;;10.98;38.70;100897.25;4426580;32;19981;-76
2022/03/28 06:08:36;;;;;;;;;;;;;;;10.91;38.76;100901.37;4443706;32;20762;-73
2022/03/28 06:11:06;;;;;;;;;;;;;;;11.10;38.04;100892.47;4443339;32;19993;-77
2022/03/28 06:13:33;;;;;;;;;;;;;;;11.34;38.36;100899.19;4443319;32;20252;-71
2022/03/28 06:16:00;;;;;;;;;;;;;;;11.15;38.68;100896.03;4443009;32;20311;-79
2022/03/28 06:18:27;;;;;;;;;;;;;;;11.00;40.19;100900.75;4442862;32;20338;-81
2022/03/28 06:20:53;;;;;;;;;;;;;;;11.26;40.33;100890.31;4428866;32;20038;-72
2022/03/28 06:23:20;;;;;;;;;;;;;;;11.48;38.24;100892.69;4414276;32;20706;-75
2022/03/28 06:25:47;;;;;;;;;;;;;;;11.58;38.16;100889.56;4442791;32;19977;-76
2022/03/28 06:28:15;;;;;;;;;;;;;;;11.61;38.06;100892.25;4442857;32;20039;-78
2022/03/28 06:30:42;;;;;;;;;;;;;;;11.81;38.50;100878.97;4428688;32;19980;-77
2022/03/28 06:33:10;;;;;;;;;;;;;;;11.82;37.32;100885.91;4428748;32;20005;-79
2022/03/28 06:35:38;;;;;;;;;;;;;;;11.97;35.83;100881.16;4442783;32;20721;-74
2022/03/28 06:38:05;;;;;;;;;;;;;;;12.22;36.17;100882.69;4415537;32;20008;-72
2022/03/28 06:40:32;;;;;;;;;;;;;;;12.24;35.43;100880.13;4429333;32;20850;-74
2022/03/28 06:42:59;;;;;;;;;;;;;;;12.62;32.40;100885.41;4416018;32;20030;-75
2022/03/28 06:45:26;;;;;;;;;;;;;;;12.84;32.16;100877.28;4442450;32;19985;-80
2022/03/28 06:47:53;;;;;;;;;;;;;;;13.14;31.14;100878.81;4428507;32;20099;-78
2022/03/28 06:50:21;;;;;;;;;;;;;;;13.42;30.93;100877.75;4442186;32;19981;-74
2022/03/28 06:52:48;;;;;;;;;;;;;;;13.61;30.46;100871.19;4440024;32;20274;-75
2022/03/28 06:55:15;;;;;;;;;;;;;;;13.96;30.39;100875.38;4443388;32;19987;-80
2022/03/28 06:57:41;;;;;;;;;;;;;;;14.35;28.97;100874.31;4442878;32;20000;-79
2022/03/28 07:00:10;;;;;;;;;;;;;;;14.62;28.74;100867.87;4427558;32;20255;-80
2022/03/28 07:02:37;;;;;;;;;;;;;;;14.95;27.92;100871.84;4442210;32;20347;-79
2022/03/28 07:05:05;;;;;;;;;;;;;;;15.46;27.73;100866.47;4442963;32;20104;-77
2022/03/28 07:07:42;;;;;;;;;;;;;;;15.87;25.72;100862.62;4442480;32;19989;-78
2022/03/28 07:10:16;;;;;;;;;;;;;;;16.24;25.56;100854.31;4417994;32;19985;-74
2022/03/28 07:12:44;;;;;;;;;;;;;;;16.82;24.66;100863.53;4427578;32;20011;-80
2022/03/28 07:15:12;;;;;;;;;;;;;;;16.83;22.91;100850.44;4444654;32;20035;-78
2022/03/28 07:17:45;;;;;;;;;;;;;;;17.25;22.74;100848.06;4430647;32;20869;-79
2022/03/28 07:20:12;;;;;;;;;;;;;;;17.60;23.54;100846.47;4444514;32;19989;-80
2022/03/28 07:22:39;;;;;;;;;;;;;;;17.72;21.40;100844.78;4443613;32;19978;-77
2022/03/28 07:25:07;;;;;;;;;;;;;;;18.13;21.62;100840.53;4429372;32;20395;-79
2022/03/28 07:27:37;;;;;;;;;;;;;;;18.21;21.23;100839.66;4439920;32;19997;-74
2022/03/28 07:30:05;;;;;;;;;;;;;;;18.32;21.17;100843.16;4419132;32;820779;-81
2022/03/28 07:32:31;;;;;;;;;;;;;;;18.38;20.65;100832.69;4430151;32;19977;-82
2022/03/28 07:34:58;;;;;;;;;;;;;;;18.48;20.75;100839.66;4444488;32;20017;-76
2022/03/28 07:37:26;;;;;;;;;;;;;;;18.53;20.62;100837.91;4444633;32;19985;-81
2022/03/28 07:39:52;;;;;;;;;;;;;;;18.90;20.65;100837.03;4444622;32;20027;-74
2022/03/28 07:42:19;;;;;;;;;;;;;;;18.99;21.00;100837.88;4444102;32;19981;-75
2022/03/28 07:44:47;;;;;;;;;;;;;;;19.64;20.28;100837.66;4443462;32;19996;-79
2022/03/28 07:47:19;;;;;;;;;;;;;;;19.69;19.92;100830.66;4443880;32;19977;-74
2022/03/28 07:49:48;;;;;;;;;;;;;;;20.00;18.49;100827.81;4436490;32;19985;-75
2022/03/28 07:52:17;;;;;;;;;;;;;;;20.15;18.50;100828.56;4444636;32;19996;-78
2022/03/28 07:54:44;;;;;;;;;;;;;;;20.04;18.71;100827.81;4444234;32;19977;-82
2022/03/28 07:57:14;;;;;;;;;;;;;;;20.21;18.65;100820.66;4443980;32;20047;-74
2022/03/28 07:59:41;;;;;;;;;;;;;;;20.44;18.08;100822.22;4445018;32;20567;-71
2022/03/28 08:02:08;;;;;;;;;;;;;;;20.40;17.80;100821.38;4444167;32;20015;-73
2022/03/28 08:04:36;;;;;;;;;;;;;;;20.43;18.75;100821.34;4430752;32;20026;-70
2022/03/28 08:07:05;;;;;;;;;;;;;;;20.42;18.58;100822.25;4444486;32;19989;-75
2022/03/28 08:09:33;;;;;;;;;;;;;;;20.25;18.58;100821.50;4443920;32;19981;-71
2022/03/28 08:12:02;;;;;;;;;;;;;;;20.17;21.46;100823.31;4441146;32;20041;-74
2022/03/28 08:14:29;;;;;;;;;;;;;;;20.17;19.79;100812.81;4442698;32;19981;-73
2022/03/28 08:16:56;;;;;;;;;;;;;;;20.49;19.39;100814.31;4128515;32;10004726;-70
2022/03/28 08:19:23;;;;;;;;;;;;;;;20.15;22.13;100811.94;4414276;32;19985;-76
2022/03/28 08:21:50;;;;;;;;;;;;;;;20.85;19.81;100803.44;4428160;32;20004;-76
2022/03/28 08:24:18;;;;;;;;;;;;;;;20.92;20.92;100806.00;4414819;32;20388;-71
2022/03/28 08:26:46;;;;;;;;;;;;;;;20.95;20.99;100808.59;4429540;32;20059;-77
2022/03/28 08:29:13;;;;;;;;;;;;;;;21.48;19.57;100804.47;4428292;32;19986;-71
2022/03/28 08:31:40;;;;;;;;;;;;;;;21.35;19.92;100793.25;4413248;32;19989;-74
2022/03/28 08:34:07;;;;;;;;;;;;;;;20.72;22.94;100796.56;4428908;32;20578;-77
2022/03/28 08:36:34;;;;;;;;;;;;;;;20.22;24.43;100795.22;4429128;32;20000;-78
2022/03/28 08:39:05;;;;;;;;;;;;;;;20.77;25.92;100788.59;4431645;32;19990;-78
2022/03/28 08:41:32;;;;;;;;;;;;;;;21.30;24.78;100795.88;4447536;32;20007;-74
2022/03/28 08:43:59;;;;;;;;;;;;;;;20.93;23.73;100789.31;4445651;32;20761;-78
2022/03/28 08:46:29;;;;;;;;;;;;;;;20.89;23.67;100784.06;4459351;32;20025;-77
2022/03/28 08:48:57;;;;;;;;;;;;;;;21.20;24.43;100781.09;4448294;32;20388;-72
2022/03/28 08:51:24;;;;;;;;;;;;;;;21.80;21.96;100786.44;4459701;32;20000;-72
2022/03/28 08:53:51;;;;;;;;;;;;;;;21.41;23.53;100785.25;4458842;32;20050;-73
2022/03/28 08:56:18;;;;;;;;;;;;;;;21.60;21.68;100775.31;4455948;32;19984;-71
2022/03/28 08:59:05;;;;;;;;;;;;;;;21.60;22.71;100780.56;4457111;32;20009;-76
2022/03/28 09:01:32;;;;;;;;;;;;;;;22.14;21.17;100775.34;4449656;32;19988;-74
2022/03/28 09:04:05;;;;;;;;;;;;;;;21.64;21.78;100769.13;4446733;32;20000;-76
2022/03/28 09:06:34;;;;;;;;;;;;;;;21.31;23.85;100773.03;4458366;32;19991;-72
2022/03/28 09:09:24;;;;;;;;;;;;;;;21.82;22.27;100758.31;4448288;32;19989;-72
2022/03/28 09:11:52;;;;;;;;;;;;;;;21.46;24.54;100770.25;4429885;32;20007;-71
2022/03/28 09:14:26;;;;;;;;;;;;;;;21.42;23.11;100767.69;4448988;32;20327;-71
2022/03/28 09:17:04;;;;;;;;;;;;;;;21.42;23.94;100762.41;4457969;32;19984;-70
2022/03/28 09:19:41;;;;;;;;;;;;;;;21.62;24.41;100760.34;4457302;32;20007;-72
2022/03/28 09:22:08;;;;;;;;;;;;;;;21.08;24.77;100768.06;4457436;32;20004;-73
2022/03/28 09:24:35;;;;;;;;;;;;;;;21.19;25.02;100755.66;4444147;32;20026;-71
2022/03/28 09:27:09;;;;;;;;;;;;;;;21.45;26.39;100757.09;4449933;32;19985;-71
2022/03/28 09:29:50;;;;;;;;;;;;;;;21.58;23.20;100746.38;4452957;32;19985;-73
2022/03/28 09:32:21;;;;;;;;;;;;;;;21.70;22.55;100742.69;4450633;32;19991;-70
2022/03/28 09:35:03;;;;;;;;;;;;;;;21.34;25.71;100744.91;4454822;32;19992;-71
2022/03/28 09:37:30;;;;;;;;;;;;;;;21.78;24.30;100742.56;4457267;32;19976;-73
2022/03/28 09:39:57;;;;;;;;;;;;;;;21.55;24.31;100742.91;4443956;32;20003;-72
2022/03/28 09:42:24;;;;;;;;;;;;;;;21.97;22.55;100735.22;4444228;32;20042;-71
2022/03/28 09:44:53;;;;;;;;;;;;;;;22.10;24.45;100720.06;4458709;32;20018;-72
2022/03/28 09:47:23;;;;;;;;;;;;;;;22.58;23.10;100723.59;4458196;32;19984;-75
2022/03/28 09:49:54;;;;;;;;;;;;;;;22.69;25.59;100716.38;4454119;32;19985;-74
2022/03/28 09:52:22;;;;;;;;;;;;;;;21.90;24.38;100717.78;4457279;32;20406;-72
2022/03/28 09:54:54;;;;;;;;;;;;;;;22.15;24.81;100712.97;4429561;32;19981;-77
2022/03/28 09:57:25;;;;;;;;;;;;;;;21.78;26.25;100714.44;4450326;32;19976;-73
2022/03/28 09:59:53;;;;;;;;;;;;;;;21.52;26.87;100706.06;4439945;32;19988;-72
2022/03/28 10:02:21;;;;;;;;;;;;;;;21.65;27.88;100702.34;4448309;32;19993;-78
2022/03/28 10:04:50;;;;;;;;;;;;;;;21.82;26.99;100699.44;4450657;32;20401;-81
2022/03/28 10:07:18;;;;;;;;;;;;;;;21.79;26.86;100689.84;4456200;32;20040;-80
2022/03/28 10:09:44;;;;;;;;;;;;;;;21.64;26.65;100689.22;4456304;32;19996;-71
2022/03/28 10:12:15;;;;;;;;;;;;;;;21.65;27.60;100686.53;4457838;32;20008;-73
2022/03/28 10:14:42;;;;;;;;;;;;;;;21.76;27.60;100689.88;4456686;32;20014;-73
2022/03/28 10:17:09;;;;;;;;;;;;;;;22.12;27.23;100687.50;4458077;32;20324;-70
2022/03/28 10:19:39;;;;;;;;;;;;;;;21.83;26.75;100675.69;4443839;32;20005;-71
2022/03/28 10:22:30;;;;;;;;;;;;;;;22.23;27.71;100679.41;4440065;32;19984;-71
2022/03/28 10:25:03;;;;;;;;;;;;;;;22.16;26.54;100668.13;4444352;32;20713;-71
2022/03/28 10:27:31;;;;;;;;;;;;;;;21.95;26.91;100669.34;4444686;32;19973;-75
2022/03/28 10:30:12;;;;;;;;;;;;;;;22.49;24.91;100665.72;4444156;32;19989;-78
2022/03/28 10:32:39;;;;;;;;;;;;;;;22.79;25.34;100655.47;4451431;32;20030;-73
2022/03/28 10:35:06;;;;;;;;;;;;;;;22.39;27.16;100653.63;4443072;32;20007;-74
2022/03/28 10:37:48;;;;;;;;;;;;;;;22.29;27.09;100645.88;4442492;32;19981;-74
2022/03/28 10:40:18;;;;;;;;;;;;;;;22.60;26.94;100636.50;4444567;32;19989;-72
2022/03/28 10:42:46;;;;;;;;;;;;;;;22.56;26.25;100645.34;4451464;32;20421;-75
2022/03/28 10:45:19;;;;;;;;;;;;;;;22.24;27.09;100629.28;4451473;32;19989;-71
2022/03/28 10:47:46;;;;;;;;;;;;;;;21.81;28.30;100630.03;4421654;32;19981;-71
2022/03/28 10:50:13;;;;;;;;;;;;;;;22.16;27.45;100628.56;4442288;32;19981;-77
2022/03/28 10:52:59;;;;;;;;;;;;;;;22.43;26.28;100624.53;4455517;32;19995;-73
2022/03/28 10:55:33;;;;;;;;;;;;;;;22.04;27.26;100610.28;4459969;32;19985;-73
2022/03/28 10:58:18;;;;;;;;;;;;;;;21.91;29.07;100608.78;4431059;32;19996;-71
2022/03/28 11:01:12;;;;;;;;;;;;;;;22.84;25.45;100596.37;4458088;32;19985;-71
2022/03/28 11:03:43;;;;;;;;;;;;;;;22.47;28.49;100594.53;4447066;32;20000;-71
2022/03/28 11:06:10;;;;;;;;;;;;;;;22.56;26.93;100587.31;4455939;32;20003;-72
2022/03/28 11:08:46;;;;;;;;;;;;;;;22.29;27.62;100590.50;4444948;32;19977;-69
2022/03/28 11:11:24;;;;;;;;;;;;;;;22.44;27.86;100583.19;4439399;32;20007;-71
2022/03/28 11:13:58;;;;;;;;;;;;;;;22.62;26.70;100569.59;4449968;32;20948;-72
2022/03/28 11:17:03;;;;;;;;;;;;;;;22.90;26.19;100571.59;4432468;32;20364;-72
2022/03/28 11:19:33;;;;;;;;;;;;;;;22.78;27.15;100561.31;4425503;32;20471;-75
2022/03/28 11:22:05;;;;;;;;;;;;;;;22.36;26.79;100549.03;4423381;32;20049;-71
2022/03/28 11:24:52;;;;;;;;;;;;;;;22.61;27.88;100553.78;4434530;32;20000;-71
2022/03/28 11:27:19;;;;;;;;;;;;;;;22.15;27.62;100552.09;4440183;32;20040;-73
2022/03/28 11:29:46;;;;;;;;;;;;;;;22.43;28.05;100533.94;4450592;32;19969;-73
2022/03/28 11:32:14;;;;;;;;;;;;;;;22.63;27.45;100523.81;4451090;32;19997;-74
2022/03/28 11:34:49;;;;;;;;;;;;;;;22.16;28.36;100520.44;4454220;32;20323;-76
2022/03/28 11:37:15;;;;;;;;;;;;;;;22.46;28.92;100523.31;4460064;32;20041;-77
2022/03/28 11:39:59;;;;;;;;;;;;;;;22.21;28.61;100512.44;4458629;32;20025;-73
2022/03/28 11:42:27;;;;;;;;;;;;;;;22.80;28.02;100504.94;4450547;32;20038;-73
2022/03/28 11:44:55;;;;;;;;;;;;;;;22.56;27.73;100498.50;4458720;32;19995;-77
2022/03/28 11:47:22;;;;;;;;;;;;;;;22.55;27.64;100490.59;4134489;32;10004536;-78
2022/03/28 11:49:53;;;;;;;;;;;;;;;23.05;26.90;100492.06;4429990;32;20187;-75
2022/03/28 11:52:20;;;;;;;;;;;;;;;22.64;27.81;100485.09;4434059;32;20650;-75
2022/03/28 11:54:47;;;;;;;;;;;;;;;22.72;27.98;100478.75;4436811;32;20012;-75
2022/03/28 12:00:14;;;;;;;;;;;;;;;23.10;26.82;100463.78;4433428;32;20084;-77
2022/03/28 12:02:47;;;;;;;;;;;;;;;23.51;25.59;100453.87;4426110;32;19977;-80
2022/03/28 12:05:24;;;;;;;;;;;;;;;23.49;25.86;100438.97;4436807;32;19989;-75
2022/03/28 12:07:52;;;;;;;;;;;;;;;23.29;26.46;100442.12;4436055;32;20878;-77
2022/03/28 12:10:23;;;;;;;;;;;;;;;23.06;27.62;100435.69;4425894;32;20000;-77
2022/03/28 12:12:49;;;;;;;;;;;;;;;23.18;27.62;100430.09;4436324;32;20528;-77
2022/03/28 12:15:23;;;;;;;;;;;;;;;23.29;27.58;100421.88;4422162;32;20027;-81
2022/03/28 12:17:53;;;;;;;;;;;;;;;22.65;26.02;100419.06;4437700;32;20030;-78
2022/03/28 12:20:21;;;;;;;;;;;;;;;22.27;27.13;100412.97;4439641;32;20031;-75
2022/03/28 12:22:48;;;;;;;;;;;;;;;22.24;28.27;100406.87;4438642;32;20114;-80
2022/03/28 12:25:22;;;;;;;;;;;;;;;22.58;26.94;100399.03;4437844;32;19985;-76
2022/03/28 12:27:53;;;;;;;;;;;;;;;22.46;27.07;100397.56;4421327;32;20339;-74
2022/03/28 12:30:27;;;;;;;;;;;;;;;22.31;27.16;100392.66;4421601;32;19984;-74
2022/03/28 12:32:54;;;;;;;;;;;;;;;22.62;27.12;100382.22;4434043;32;19985;-75
2022/03/28 12:35:22;;;;;;;;;;;;;;;22.74;26.89;100381.91;4435175;32;19981;-75
2022/03/28 12:37:55;;;;;;;;;;;;;;;22.28;28.12;100388.31;4426509;32;20011;-77
2022/03/28 12:40:26;;;;;;;;;;;;;;;22.50;27.41;100371.97;4382229;32;20442;-76
2022/03/28 12:42:54;;;;;;;;;;;;;;;22.92;25.89;100369.16;4430210;32;20806;-74
2022/03/28 12:45:25;;;;;;;;;;;;;;;22.70;26.16;100353.84;4446077;32;20034;-76
2022/03/28 12:48:02;;;;;;;;;;;;;;;23.04;26.15;100347.75;4450938;32;20469;-77
2022/03/28 12:50:29;;;;;;;;;;;;;;;22.99;26.84;100354.91;4457213;32;19992;-77
2022/03/28 12:53:13;;;;;;;;;;;;;;;22.95;27.16;100337.41;4432773;32;20026;-79